메인 페이지
METAR-TAF:

METAR-TAF

공항 :

이바토 공항

안타나나리보, 마다가스카르

위도: 18-48S, 경도: 047-29E, 고도: 1279m

현재 날씨관측

예보는 9분 전, 22:30시(UTC)에 발표되었습니다.
3kt
온도 12°C
습도 94%
기압 1024 hPa
시정 10km 이상
고도 1700ft 상공 구름 조금

METAR: FMMI 182230Z 17003KT 9999 FEW017 12/11 Q1024 NOSIG

시각: 01:39 (22:39 UTC)

예보

예보는 5 시간 39분 전, 17:00시(UTC)에 발표되었습니다.
예보 대상 시간: 18일 18시부터 19일 24시까지 (UTC)
남동9kt
시정 10km 이상
고도 1000ft 상공 구름 조금
고도 2000ft 상공 구름 많음

TAF: FMMI 181700Z 1818/1924 13009KT 9999 FEW010 BKN020

4,000개 이상의 공항 관측 자료 및 예보 (METAR 및 TAF 보고).

지도상에서 검색 가능한 기상관측소가 노란 점과 빨간 점으로 표시되어 있습니다.

기상관측소 명을 보려면 표시 위로 마우스를 이동하세요.

날씨 관측과 예보를 보려면 클릭하세요.

지도 변경 : 확대하려면 엑스 표시가 있는 녹색 버튼, 축소하려면 빼기 표시가 있는 녹색 버튼, 다음 페이지의 지도를 보려면 녹색 화살표를 클릭하세요.


METAR-TAF: